createdAt,value
2018-12-30T00:00:05.139Z,29.33
2018-12-30T00:02:36.948Z,26.57
2018-12-30T00:05:08.394Z,28.03
2018-12-30T00:07:40.021Z,29.40
2018-12-30T00:10:11.551Z,30.43
2018-12-30T00:12:42.780Z,27.77
2018-12-30T00:15:14.065Z,29.27
2018-12-30T00:17:45.299Z,29.37
2018-12-30T00:20:16.894Z,26.73
2018-12-30T00:22:48.342Z,27.27
2018-12-30T00:25:20.359Z,27.32
2018-12-30T00:27:51.789Z,28.17
2018-12-30T00:30:23.031Z,30.27
2018-12-30T00:32:54.067Z,27.27
2018-12-30T00:35:25.199Z,27.90
2018-12-30T00:37:57.715Z,26.03
2018-12-30T00:40:30.433Z,28.23
2018-12-30T00:43:05.863Z,26.87
2018-12-30T00:45:37.259Z,27.63
2018-12-30T00:48:08.527Z,28.63
2018-12-30T00:50:39.674Z,28.03
2018-12-30T00:53:10.726Z,27.20
2018-12-30T00:55:42.306Z,27.23
2018-12-30T00:58:13.755Z,26.97
2018-12-30T01:00:44.842Z,27.43
2018-12-30T01:03:17.128Z,27.98
2018-12-30T01:05:48.324Z,28.50
2018-12-30T01:08:19.521Z,28.60
2018-12-30T01:10:51.709Z,27.32
2018-12-30T01:13:23.128Z,27.53
2018-12-30T01:15:55.529Z,25.37
2018-12-30T01:18:28.159Z,26.63
2018-12-30T01:20:59.255Z,23.93
2018-12-30T01:23:30.760Z,24.13
2018-12-30T01:26:01.952Z,25.88
2018-12-30T01:28:33.102Z,26.00
2018-12-30T01:31:04.100Z,25.70
2018-12-30T01:33:35.475Z,26.03
2018-12-30T01:36:07.053Z,24.80
2018-12-30T01:38:38.394Z,25.30
2018-12-30T01:41:10.878Z,27.77
2018-12-30T01:43:42.212Z,25.50
2018-12-30T01:46:13.200Z,25.72
2018-12-30T01:48:45.505Z,25.27
2018-12-30T01:51:16.613Z,26.82
2018-12-30T01:53:47.885Z,27.20
2018-12-30T01:56:19.484Z,25.67
2018-12-30T01:58:51.246Z,25.30
2018-12-30T02:01:22.496Z,26.77
2018-12-30T02:03:53.666Z,23.57
2018-12-30T02:06:26.589Z,24.43
2018-12-30T02:08:57.784Z,23.60
2018-12-30T02:11:29.015Z,22.57
2018-12-30T02:14:00.225Z,22.30
2018-12-30T02:16:31.221Z,21.70
2018-12-30T02:19:02.367Z,18.13
2018-12-30T02:21:40.933Z,18.93
2018-12-30T02:24:07.685Z,17.30
2018-12-30T02:26:38.841Z,16.97
2018-12-30T02:29:09.979Z,17.70
2018-12-30T02:31:41.208Z,17.93
2018-12-30T02:34:12.235Z,18.37
2018-12-30T02:36:43.388Z,17.63
2018-12-30T02:39:15.064Z,17.73
2018-12-30T02:41:46.938Z,16.30
2018-12-30T02:44:18.424Z,15.00
2018-12-30T02:46:49.481Z,16.32
2018-12-30T02:49:20.890Z,15.72
2018-12-30T02:51:52.310Z,15.13
2018-12-30T02:54:24.007Z,16.90
2018-12-30T02:56:55.071Z,15.80
2018-12-30T02:59:27.753Z,16.33
2018-12-30T03:01:59.856Z,16.93
2018-12-30T03:04:31.318Z,18.67
2018-12-30T03:07:02.961Z,17.73
2018-12-30T03:09:34.151Z,18.37
2018-12-30T03:12:06.351Z,19.45
2018-12-30T03:14:37.781Z,19.93
2018-12-30T03:17:08.906Z,18.37
2018-12-30T03:19:40.724Z,18.07
2018-12-30T03:22:12.369Z,20.13
2018-12-30T03:24:43.424Z,19.67
2018-12-30T03:27:14.804Z,20.50
2018-12-30T03:29:46.049Z,18.07
2018-12-30T03:32:17.193Z,21.10
2018-12-30T03:34:48.405Z,19.73
2018-12-30T03:37:19.493Z,18.80
2018-12-30T03:39:50.749Z,17.77
2018-12-30T03:42:21.957Z,19.85
2018-12-30T03:44:53.206Z,19.57
2018-12-30T03:47:24.346Z,17.70
2018-12-30T03:49:56.029Z,19.17
2018-12-30T03:52:28.681Z,18.60
2018-12-30T03:54:59.857Z,19.40
2018-12-30T03:57:31.458Z,19.43
2018-12-30T04:00:02.860Z,21.07
2018-12-30T04:02:34.208Z,21.47
2018-12-30T04:05:06.183Z,21.45
2018-12-30T04:07:37.411Z,19.77
2018-12-30T04:10:08.904Z,20.23
2018-12-30T04:12:40.639Z,21.13
2018-12-30T04:15:12.199Z,22.70
2018-12-30T04:17:43.335Z,24.27
2018-12-30T04:20:14.371Z,24.07
2018-12-30T04:22:45.568Z,23.97
2018-12-30T04:25:16.917Z,24.20
2018-12-30T04:27:47.910Z,26.20
2018-12-30T04:30:20.674Z,25.02
2018-12-30T04:32:54.034Z,25.50
2018-12-30T04:35:25.386Z,25.63
2018-12-30T04:37:56.493Z,25.50
2018-12-30T04:40:27.715Z,26.67
2018-12-30T04:42:59.059Z,25.53
2018-12-30T04:45:30.365Z,27.03
2018-12-30T04:48:01.553Z,26.47
2018-12-30T04:50:32.738Z,27.75
2018-12-30T04:53:03.972Z,27.33
2018-12-30T04:55:35.466Z,25.70
2018-12-30T04:58:07.671Z,26.07
2018-12-30T05:00:38.789Z,26.17
2018-12-30T05:03:09.955Z,25.30
2018-12-30T05:05:43.782Z,26.83
2018-12-30T05:08:16.530Z,26.67
2018-12-30T05:10:48.038Z,26.42
2018-12-30T05:13:19.411Z,26.02
2018-12-30T05:15:51.934Z,25.60
2018-12-30T05:18:23.016Z,25.60
2018-12-30T05:20:54.164Z,25.23
2018-12-30T05:23:25.545Z,26.43
2018-12-30T05:25:56.579Z,25.50
2018-12-30T05:28:27.573Z,27.03
2018-12-30T05:30:59.075Z,23.70
2018-12-30T05:33:31.936Z,25.37
2018-12-30T05:36:03.114Z,26.13
2018-12-30T05:38:35.847Z,25.37
2018-12-30T05:41:07.368Z,24.50
2018-12-30T05:43:38.745Z,25.00
2018-12-30T05:46:10.059Z,24.30
2018-12-30T05:48:41.172Z,24.37
2018-12-30T05:51:13.300Z,24.37
2018-12-30T05:53:44.403Z,25.80
2018-12-30T05:56:15.558Z,25.27
2018-12-30T05:58:46.835Z,25.07
2018-12-30T06:01:17.999Z,26.68
2018-12-30T06:03:49.031Z,25.27
2018-12-30T06:06:20.446Z,25.10
2018-12-30T06:08:51.628Z,24.02
2018-12-30T06:11:22.853Z,26.35
2018-12-30T06:13:53.863Z,25.17
2018-12-30T06:16:25.116Z,26.20
2018-12-30T06:18:56.634Z,26.60
2018-12-30T06:21:27.915Z,25.40
2018-12-30T06:23:59.077Z,24.40
2018-12-30T06:26:30.146Z,25.73
2018-12-30T06:29:01.418Z,26.03
2018-12-30T06:31:32.534Z,25.70
2018-12-30T06:34:03.726Z,25.80
2018-12-30T06:36:34.904Z,25.03
2018-12-30T06:39:08.216Z,25.10
2018-12-30T06:41:39.444Z,26.10
2018-12-30T06:44:10.884Z,25.02
2018-12-30T06:46:41.996Z,24.98
2018-12-30T06:49:13.136Z,24.80
2018-12-30T06:51:44.755Z,26.23
2018-12-30T06:54:16.243Z,24.97
2018-12-30T06:56:47.515Z,24.67
2018-12-30T06:59:18.502Z,23.73
2018-12-30T07:01:49.926Z,22.93
2018-12-30T07:04:21.288Z,23.10
2018-12-30T07:06:53.518Z,23.40
2018-12-30T07:09:24.824Z,21.83
2018-12-30T07:11:56.327Z,21.83
2018-12-30T07:14:27.551Z,20.23
2018-12-30T07:16:59.061Z,21.53
2018-12-30T07:19:30.271Z,21.37
2018-12-30T07:22:01.732Z,20.07
2018-12-30T07:24:32.889Z,20.70
2018-12-30T07:27:05.709Z,21.90
2018-12-30T07:29:36.710Z,22.33
2018-12-30T07:32:10.002Z,21.50
2018-12-30T07:34:41.955Z,20.03
2018-12-30T07:37:13.755Z,19.07
2018-12-30T07:39:45.009Z,20.43
2018-12-30T07:42:16.486Z,20.23
2018-12-30T07:44:47.670Z,20.90
2018-12-30T07:47:19.708Z,21.23
2018-12-30T07:49:50.870Z,21.07
2018-12-30T07:52:22.273Z,21.10
2018-12-30T07:54:53.514Z,21.33
2018-12-30T07:57:24.940Z,20.33
2018-12-30T07:59:57.105Z,21.67
2018-12-30T08:02:28.495Z,21.17
2018-12-30T08:04:59.917Z,21.63
2018-12-30T08:07:32.220Z,22.37
2018-12-30T08:10:03.427Z,21.40
2018-12-30T08:12:34.645Z,21.37
2018-12-30T08:15:06.486Z,20.77
2018-12-30T08:17:37.669Z,20.93
2018-12-30T08:20:08.902Z,20.77
2018-12-30T08:22:40.213Z,19.93
2018-12-30T08:25:11.389Z,20.65
2018-12-30T08:27:42.624Z,20.37
2018-12-30T08:30:13.938Z,20.07
2018-12-30T08:32:45.277Z,20.27
2018-12-30T08:35:16.260Z,20.88
2018-12-30T08:37:47.574Z,21.87
2018-12-30T08:40:18.855Z,22.00
2018-12-30T08:42:49.885Z,21.53
2018-12-30T08:45:22.131Z,22.40
2018-12-30T08:47:53.387Z,21.77
2018-12-30T08:50:24.579Z,21.95
2018-12-30T08:52:55.596Z,22.53
2018-12-30T08:55:26.740Z,20.63
2018-12-30T08:57:58.593Z,20.97
2018-12-30T09:00:29.868Z,20.33
2018-12-30T09:03:01.086Z,19.57
2018-12-30T09:05:32.149Z,21.07
2018-12-30T09:08:03.343Z,19.60
2018-12-30T09:10:34.527Z,20.83
2018-12-30T09:13:05.880Z,21.10
2018-12-30T09:15:37.036Z,21.87
2018-12-30T09:18:08.460Z,21.17
2018-12-30T09:20:39.798Z,20.30
2018-12-30T09:23:10.902Z,17.87
2018-12-30T09:25:42.801Z,18.50
2018-12-30T09:28:14.233Z,19.03
2018-12-30T09:30:45.911Z,18.30
2018-12-30T09:33:19.601Z,18.23
2018-12-30T09:35:50.771Z,19.13
2018-12-30T09:38:22.096Z,17.90
2018-12-30T09:40:53.174Z,17.53
2018-12-30T09:43:24.278Z,17.40
2018-12-30T09:45:55.250Z,15.30
2018-12-30T09:48:33.603Z,15.70
2018-12-30T09:50:59.445Z,16.33
2018-12-30T09:53:30.663Z,17.27
2018-12-30T09:56:02.105Z,17.23
2018-12-30T09:58:33.450Z,16.60
2018-12-30T10:01:04.764Z,16.23
2018-12-30T10:03:35.838Z,16.57
2018-12-30T10:06:08.226Z,16.70
2018-12-30T10:08:39.574Z,15.77
2018-12-30T10:11:10.761Z,11.87
2018-12-30T10:13:42.939Z,11.47
2018-12-30T10:16:14.514Z,11.30
2018-12-30T10:18:45.643Z,10.57
2018-12-30T10:21:17.129Z,10.33
2018-12-30T10:23:52.915Z,9.17
2018-12-30T10:26:21.276Z,9.73
2018-12-30T10:28:52.495Z,10.00
2018-12-30T10:31:23.795Z,10.28
2018-12-30T10:33:54.891Z,9.87
2018-12-30T10:36:26.055Z,9.73
2018-12-30T10:38:57.188Z,10.37
2018-12-30T10:41:28.250Z,10.67
2018-12-30T10:43:59.466Z,10.30
2018-12-30T10:46:30.859Z,10.70
2018-12-30T10:49:02.062Z,11.53
2018-12-30T10:51:34.812Z,11.20
2018-12-30T10:54:06.774Z,11.47
2018-12-30T10:56:38.139Z,12.30
2018-12-30T10:59:09.355Z,11.00
2018-12-30T11:01:40.429Z,11.83
2018-12-30T11:04:11.776Z,12.40
2018-12-30T11:06:43.012Z,12.43
2018-12-30T11:09:14.426Z,12.28
2018-12-30T11:11:45.759Z,14.13
2018-12-30T11:14:17.461Z,13.57
2018-12-30T11:16:50.382Z,14.33
2018-12-30T11:19:21.531Z,14.37
2018-12-30T11:21:52.755Z,14.13
2018-12-30T11:24:24.250Z,15.23
2018-12-30T11:26:55.314Z,15.77
2018-12-30T11:29:26.443Z,15.93
2018-12-30T11:31:59.299Z,16.10
2018-12-30T11:34:30.333Z,15.70
2018-12-30T11:37:01.377Z,14.83
2018-12-30T11:39:33.152Z,15.37
2018-12-30T11:42:04.246Z,16.90
2018-12-30T11:44:35.544Z,15.63
2018-12-30T11:47:06.633Z,15.87
2018-12-30T11:49:37.674Z,15.53
2018-12-30T11:52:08.759Z,16.37
2018-12-30T11:54:39.855Z,16.23
2018-12-30T11:57:11.141Z,15.85
2018-12-30T11:59:42.290Z,14.10
2018-12-30T12:02:13.508Z,14.47
2018-12-30T12:04:44.860Z,12.37
2018-12-30T12:07:17.881Z,12.47
2018-12-30T12:09:49.055Z,13.00
2018-12-30T12:12:20.403Z,14.07
2018-12-30T12:14:51.837Z,13.27
2018-12-30T12:17:23.059Z,14.80
2018-12-30T12:19:54.206Z,15.37
2018-12-30T12:22:25.294Z,14.97
2018-12-30T12:24:57.767Z,14.80
2018-12-30T12:27:29.214Z,12.25
2018-12-30T12:30:00.645Z,13.70
2018-12-30T12:32:31.731Z,12.73
2018-12-30T12:35:03.502Z,13.27
2018-12-30T12:37:34.700Z,12.00
2018-12-30T12:40:05.970Z,12.00
2018-12-30T12:42:37.036Z,12.57
2018-12-30T12:45:08.254Z,12.30
2018-12-30T12:47:39.225Z,12.87
2018-12-30T12:50:11.405Z,12.88
2018-12-30T12:52:42.465Z,12.83
2018-12-30T12:55:13.883Z,14.35
2018-12-30T12:57:45.223Z,14.23
2018-12-30T13:00:16.419Z,13.53
2018-12-30T13:02:48.972Z,14.13
2018-12-30T13:05:20.939Z,15.10
2018-12-30T13:07:52.145Z,13.80
2018-12-30T13:10:23.697Z,14.58
2018-12-30T13:12:54.821Z,16.07
2018-12-30T13:15:26.126Z,14.33
2018-12-30T13:17:57.772Z,15.77
2018-12-30T13:20:29.602Z,16.33
2018-12-30T13:23:00.560Z,15.93
2018-12-30T13:25:33.085Z,16.73
2018-12-30T13:28:04.186Z,16.90
2018-12-30T13:30:35.215Z,16.27
2018-12-30T13:33:06.255Z,17.00
2018-12-30T13:35:43.402Z,16.83
2018-12-30T13:38:11.546Z,16.02
2018-12-30T13:40:42.857Z,16.03
2018-12-30T13:43:13.898Z,17.30
2018-12-30T13:45:45.081Z,16.43
2018-12-30T13:48:16.075Z,17.75
2018-12-30T13:50:47.243Z,16.53
2018-12-30T13:53:18.699Z,15.40
2018-12-30T13:55:50.453Z,16.80
2018-12-30T13:58:21.707Z,15.70
2018-12-30T14:00:55.130Z,15.27
2018-12-30T14:03:26.426Z,16.93
2018-12-30T14:05:57.778Z,15.50
2018-12-30T14:08:31.298Z,16.23
2018-12-30T14:11:02.419Z,15.63
2018-12-30T14:13:33.460Z,16.97
2018-12-30T14:16:05.951Z,15.83
2018-12-30T14:18:37.191Z,17.57
2018-12-30T14:21:08.214Z,16.77
2018-12-30T14:23:39.386Z,16.97
2018-12-30T14:26:10.593Z,17.62
2018-12-30T14:28:41.698Z,16.30
2018-12-30T14:31:12.822Z,17.73
2018-12-30T14:33:44.165Z,18.45
2018-12-30T14:36:15.389Z,19.48
2018-12-30T14:38:46.547Z,17.20
2018-12-30T14:41:17.702Z,19.02
2018-12-30T14:43:50.596Z,18.87
2018-12-30T14:46:23.137Z,17.80
2018-12-30T14:48:54.209Z,18.97
2018-12-30T14:51:25.553Z,20.30
2018-12-30T14:53:56.907Z,18.90
2018-12-30T14:56:28.499Z,18.40
2018-12-30T14:59:00.686Z,19.93
2018-12-30T15:01:31.938Z,18.87
2018-12-30T15:04:03.028Z,17.50
2018-12-30T15:06:34.612Z,16.73
2018-12-30T15:09:08.451Z,16.70
2018-12-30T15:11:39.543Z,16.43
2018-12-30T15:14:10.577Z,16.40
2018-12-30T15:16:41.699Z,16.32
2018-12-30T15:19:12.911Z,16.65
2018-12-30T15:21:44.332Z,16.23
2018-12-30T15:24:15.332Z,16.27
2018-12-30T15:26:47.417Z,17.40
2018-12-30T15:29:18.475Z,16.80
2018-12-30T15:31:49.588Z,17.60
2018-12-30T15:34:20.823Z,18.45
2018-12-30T15:36:53.133Z,15.05
2018-12-30T15:39:24.225Z,17.27
2018-12-30T15:41:55.899Z,18.37
2018-12-30T15:44:26.897Z,20.40
2018-12-30T15:46:58.036Z,19.83
2018-12-30T15:49:30.826Z,17.13
2018-12-30T15:52:01.872Z,16.03
2018-12-30T15:54:32.965Z,17.00
2018-12-30T15:57:04.098Z,16.80
2018-12-30T15:59:35.184Z,15.50
2018-12-30T16:02:06.337Z,13.60
2018-12-30T16:04:37.443Z,13.27
2018-12-30T16:07:08.665Z,14.37
2018-12-30T16:09:39.895Z,12.68
2018-12-30T16:12:11.200Z,12.03
2018-12-30T16:14:42.286Z,13.33
2018-12-30T16:17:13.553Z,12.97
2018-12-30T16:19:44.869Z,12.70
2018-12-30T16:22:16.494Z,12.93
2018-12-30T16:24:47.599Z,13.93
2018-12-30T16:27:18.711Z,15.33
2018-12-30T16:29:49.875Z,15.33
2018-12-30T16:32:21.151Z,14.68
2018-12-30T16:34:52.406Z,15.97
2018-12-30T16:37:23.558Z,16.57
2018-12-30T16:39:54.762Z,17.03
2018-12-30T16:42:26.029Z,15.40
2018-12-30T16:44:57.145Z,18.37
2018-12-30T16:47:28.393Z,17.47
2018-12-30T16:49:59.570Z,18.63
2018-12-30T16:52:30.722Z,18.67
2018-12-30T16:55:02.301Z,19.20
2018-12-30T16:57:33.701Z,19.93
2018-12-30T17:00:07.270Z,18.33
2018-12-30T17:02:38.351Z,18.70
2018-12-30T17:05:10.906Z,19.77
2018-12-30T17:07:42.208Z,20.37
2018-12-30T17:10:13.467Z,20.82
2018-12-30T17:12:46.567Z,20.73
2018-12-30T17:15:17.664Z,21.03
2018-12-30T17:17:48.782Z,21.57
2018-12-30T17:20:19.930Z,20.90
2018-12-30T17:22:51.664Z,21.63
2018-12-30T17:25:22.808Z,23.18
2018-12-30T17:27:54.083Z,22.20
2018-12-30T17:30:25.258Z,21.23
2018-12-30T17:32:56.516Z,21.60
2018-12-30T17:35:28.982Z,19.93
2018-12-30T17:38:00.203Z,20.75
2018-12-30T17:40:38.216Z,22.30
2018-12-30T17:43:04.983Z,21.20
2018-12-30T17:45:36.454Z,21.43
2018-12-30T17:48:07.733Z,22.83
2018-12-30T17:50:39.166Z,21.03
2018-12-30T17:53:10.247Z,19.75
2018-12-30T17:55:41.591Z,17.10
2018-12-30T17:58:12.787Z,17.05
2018-12-30T18:00:44.866Z,16.63
2018-12-30T18:03:17.751Z,14.77
2018-12-30T18:05:48.770Z,15.23
2018-12-30T18:08:19.987Z,16.15
2018-12-30T18:10:51.241Z,16.00
2018-12-30T18:13:22.476Z,15.98
2018-12-30T18:15:53.655Z,17.50
2018-12-30T18:18:25.165Z,16.50
2018-12-30T18:20:56.750Z,16.43
2018-12-30T18:23:27.792Z,16.37
2018-12-30T18:25:58.981Z,15.10
2018-12-30T18:28:30.062Z,9.33
2018-12-30T18:31:01.260Z,11.20
2018-12-30T18:33:32.705Z,8.20
2018-12-30T18:36:03.865Z,6.73
2018-12-30T18:38:35.149Z,5.93
2018-12-30T18:41:06.395Z,6.27
2018-12-30T18:43:37.630Z,6.33
2018-12-30T18:46:09.032Z,6.28
2018-12-30T18:48:40.855Z,7.23
2018-12-30T18:51:12.379Z,6.50
2018-12-30T18:53:43.649Z,7.33
2018-12-30T18:56:14.705Z,6.73
2018-12-30T18:58:45.841Z,7.17
2018-12-30T19:01:18.730Z,7.47
2018-12-30T19:03:50.554Z,6.65
2018-12-30T19:06:22.207Z,7.23
2018-12-30T19:08:53.448Z,6.73
2018-12-30T19:11:24.674Z,7.55
2018-12-30T19:13:56.193Z,6.70
2018-12-30T19:16:27.217Z,8.43
2018-12-30T19:18:59.967Z,7.63
2018-12-30T19:21:31.185Z,7.13
2018-12-30T19:24:02.457Z,8.87
2018-12-30T19:26:33.758Z,8.00
2018-12-30T19:29:05.985Z,8.73
2018-12-30T19:31:37.044Z,8.80
2018-12-30T19:34:08.069Z,9.60
2018-12-30T19:36:39.917Z,9.47
2018-12-30T19:39:11.185Z,10.57
2018-12-30T19:41:43.125Z,11.70
2018-12-30T19:44:14.282Z,11.73
2018-12-30T19:46:46.120Z,11.33
2018-12-30T19:49:17.373Z,11.90
2018-12-30T19:51:48.561Z,12.73
2018-12-30T19:54:20.004Z,13.00
2018-12-30T19:56:51.137Z,11.97
2018-12-30T19:59:23.192Z,13.32
2018-12-30T20:01:54.340Z,12.57
2018-12-30T20:04:25.664Z,12.50
2018-12-30T20:06:56.832Z,13.05
2018-12-30T20:09:28.140Z,13.37
2018-12-30T20:11:59.233Z,15.63
2018-12-30T20:14:31.750Z,14.40
2018-12-30T20:17:02.760Z,16.37
2018-12-30T20:19:33.899Z,14.87
2018-12-30T20:22:06.271Z,17.10
2018-12-30T20:24:37.622Z,16.60
2018-12-30T20:27:08.661Z,19.00
2018-12-30T20:29:39.908Z,19.57
2018-12-30T20:32:10.881Z,19.03
2018-12-30T20:34:42.133Z,22.10
2018-12-30T20:37:15.099Z,20.48
2018-12-30T20:39:46.418Z,22.87
2018-12-30T20:42:17.604Z,23.70
2018-12-30T20:44:48.984Z,24.18
2018-12-30T20:47:20.077Z,23.62
2018-12-30T20:49:51.191Z,23.83
2018-12-30T20:52:22.497Z,23.10
2018-12-30T20:54:53.643Z,21.63
2018-12-30T20:57:24.737Z,23.77
2018-12-30T20:59:55.959Z,23.13
2018-12-30T21:02:27.010Z,25.73
2018-12-30T21:04:58.792Z,23.43
2018-12-30T21:07:29.887Z,23.43
2018-12-30T21:10:01.187Z,24.30
2018-12-30T21:12:32.689Z,24.70
2018-12-30T21:15:03.905Z,23.90
2018-12-30T21:17:35.541Z,24.23
2018-12-30T21:20:07.164Z,24.13
2018-12-30T21:22:40.009Z,23.37
2018-12-30T21:25:11.202Z,23.67
2018-12-30T21:27:42.620Z,22.53
2018-12-30T21:30:13.642Z,22.87
2018-12-30T21:32:44.933Z,21.83
2018-12-30T21:35:16.345Z,21.85
2018-12-30T21:37:47.595Z,22.30
2018-12-30T21:40:18.943Z,22.00
2018-12-30T21:42:50.362Z,23.70
2018-12-30T21:45:21.890Z,24.47
2018-12-30T21:47:53.358Z,24.33
2018-12-30T21:50:24.911Z,24.17
2018-12-30T21:52:57.233Z,24.00
2018-12-30T21:55:29.135Z,21.67
2018-12-30T21:58:00.618Z,20.27
2018-12-30T22:00:31.625Z,20.57
2018-12-30T22:03:03.930Z,21.37
2018-12-30T22:05:36.860Z,21.17
2018-12-30T22:08:08.970Z,22.53
2018-12-30T22:10:40.378Z,19.63
2018-12-30T22:13:11.343Z,20.97
2018-12-30T22:15:42.451Z,18.80
2018-12-30T22:18:13.672Z,19.60
2018-12-30T22:20:44.996Z,20.50
2018-12-30T22:23:16.344Z,22.20
2018-12-30T22:25:47.496Z,19.53
2018-12-30T22:28:18.511Z,19.98
2018-12-30T22:30:49.667Z,16.33
2018-12-30T22:33:20.984Z,16.70
2018-12-30T22:35:52.041Z,15.40
2018-12-30T22:38:23.273Z,16.57
2018-12-30T22:40:54.726Z,14.13
2018-12-30T22:43:26.021Z,11.10
2018-12-30T22:45:57.362Z,11.53
2018-12-30T22:48:28.464Z,11.70
2018-12-30T22:50:59.639Z,12.40
2018-12-30T22:53:30.735Z,12.70
2018-12-30T22:56:01.835Z,11.70
2018-12-30T22:58:33.032Z,12.77
2018-12-30T23:01:11.815Z,11.27
2018-12-30T23:03:43.041Z,10.87
2018-12-30T23:06:14.174Z,11.43
2018-12-30T23:08:45.560Z,11.83
2018-12-30T23:11:16.720Z,10.90
2018-12-30T23:13:47.849Z,11.60
2018-12-30T23:16:19.209Z,13.80
2018-12-30T23:18:50.223Z,12.20
2018-12-30T23:21:21.513Z,10.23
2018-12-30T23:23:53.872Z,11.57
2018-12-30T23:26:25.122Z,9.70
2018-12-30T23:28:56.370Z,10.10
2018-12-30T23:31:27.883Z,10.03
2018-12-30T23:34:00.537Z,10.40
2018-12-30T23:36:31.783Z,10.43
2018-12-30T23:39:03.009Z,9.40
2018-12-30T23:41:35.215Z,9.50
2018-12-30T23:44:09.189Z,9.33
2018-12-30T23:46:40.146Z,8.93
2018-12-30T23:49:11.350Z,9.80
2018-12-30T23:51:42.596Z,9.60
2018-12-30T23:54:13.769Z,8.17
2018-12-30T23:56:45.072Z,8.87
2018-12-30T23:59:16.250Z,8.57
